SAA56 HTDA-FAOR
Flight info
| Callsign | SAA56 |
|---|---|
| Flight time | 3h 25m |
| Altitude | 36000 |
| Route | IMVAL1B KASIM UL437 DVL UM315 USUBI UR409 VMV UP312 GWV UZ11 NESAG UZ7 OKPIT OKPIT1C |
| Aircraft | A320/M-SDE3FGHIRWY/LB1 |
Departure
| Time | 2026-04-30 14:17 |
|---|---|
| Airport | Julius Nyerere International Airport (HTDA) |
Arrival
| Time | 2026-04-30 17:42 |
|---|---|
| Airport | O.R. Tambo International Airport (FAOR) |
| Time | Latitude | Longitude | Altitude | Speed | Heading |
|---|---|---|---|---|---|
| 2026-04-30 14:12 | -6.86606 | 39.21135 | 183 ft | 0 kts | 46° |
| 2026-04-30 14:13 | -6.86601 | 39.21141 | 183 ft | 4 kts | 46° |
| 2026-04-30 14:13 | -6.86561 | 39.21181 | 182 ft | 11 kts | 44° |
| 2026-04-30 14:13 | -6.86500 | 39.21242 | 181 ft | 12 kts | 45° |
| 2026-04-30 14:13 | -6.86436 | 39.21306 | 180 ft | 12 kts | 45° |
| 2026-04-30 14:14 | -6.86421 | 39.21378 | 178 ft | 10 kts | 106° |
| 2026-04-30 14:14 | -6.86407 | 39.21439 | 177 ft | 10 kts | 51° |
| 2026-04-30 14:14 | -6.86353 | 39.21495 | 176 ft | 12 kts | 51° |
| 2026-04-30 14:14 | -6.86326 | 39.21575 | 174 ft | 8 kts | 83° |
| 2026-04-30 14:15 | -6.86324 | 39.21589 | 174 ft | 0 kts | 86° |
| 2026-04-30 14:15 | -6.86324 | 39.21610 | 174 ft | 5 kts | 94° |
| 2026-04-30 14:15 | -6.86345 | 39.21657 | 172 ft | 9 kts | 134° |
| 2026-04-30 14:16 | -6.86400 | 39.21672 | 172 ft | 6 kts | 202° |
| 2026-04-30 14:16 | -6.86419 | 39.21657 | 172 ft | 0 kts | 225° |
| 2026-04-30 14:16 | -6.86450 | 39.21626 | 173 ft | 23 kts | 225° |
| 2026-04-30 14:16 | -6.86708 | 39.21367 | 178 ft | 81 kts | 223° |
| 2026-04-30 14:17 | -6.87242 | 39.20834 | 182 ft | 134 kts | 224° |
| 2026-04-30 14:17 | -6.87985 | 39.20074 | 449 ft | 159 kts | 222° |
| 2026-04-30 14:17 | -6.88865 | 39.19343 | 935 ft | 170 kts | 215° |
| 2026-04-30 14:17 | -6.89799 | 39.18632 | 1717 ft | 169 kts | 216° |
| 2026-04-30 14:18 | -6.90692 | 39.17954 | 2288 ft | 166 kts | 217° |
| 2026-04-30 14:18 | -6.91672 | 39.17192 | 2432 ft | 187 kts | 217° |
| 2026-04-30 14:18 | -6.94006 | 39.15415 | 2661 ft | 242 kts | 216° |
| 2026-04-30 14:19 | -6.96870 | 39.13248 | 3902 ft | 260 kts | 217° |
| 2026-04-30 14:19 | -6.98311 | 39.12147 | 4648 ft | 264 kts | 217° |
| 2026-04-30 14:19 | -6.99782 | 39.11021 | 5379 ft | 268 kts | 217° |
| 2026-04-30 14:20 | -7.01262 | 39.09887 | 6108 ft | 271 kts | 217° |
| 2026-04-30 14:20 | -7.02761 | 39.08738 | 6824 ft | 275 kts | 217° |
| 2026-04-30 14:20 | -7.05814 | 39.06396 | 8235 ft | 281 kts | 217° |
| 2026-04-30 14:21 | -7.07371 | 39.05204 | 8935 ft | 284 kts | 216° |
| 2026-04-30 14:21 | -7.08965 | 39.03995 | 9630 ft | 287 kts | 216° |
| 2026-04-30 14:21 | -7.12272 | 39.01492 | 10182 ft | 323 kts | 216° |
| 2026-04-30 14:22 | -7.14139 | 39.00079 | 10212 ft | 349 kts | 216° |
| 2026-04-30 14:22 | -7.18147 | 38.97037 | 11330 ft | 365 kts | 216° |
| 2026-04-30 14:22 | -7.20174 | 38.95497 | 12046 ft | 368 kts | 216° |
| 2026-04-30 14:23 | -7.24273 | 38.92384 | 13428 ft | 373 kts | 216° |
| 2026-04-30 14:23 | -7.28442 | 38.89218 | 14763 ft | 379 kts | 216° |
| 2026-04-30 14:24 | -7.32679 | 38.85999 | 16040 ft | 384 kts | 216° |
| 2026-04-30 14:24 | -7.34812 | 38.84379 | 16647 ft | 387 kts | 216° |
| 2026-04-30 14:25 | -7.39110 | 38.81112 | 17823 ft | 392 kts | 216° |
| 2026-04-30 14:25 | -7.43488 | 38.77784 | 18945 ft | 397 kts | 216° |
| 2026-04-30 14:26 | -7.47901 | 38.74428 | 20002 ft | 402 kts | 216° |
| 2026-04-30 14:26 | -7.50129 | 38.72734 | 20510 ft | 404 kts | 216° |
| 2026-04-30 14:26 | -7.54629 | 38.69311 | 21488 ft | 408 kts | 216° |
| 2026-04-30 14:27 | -7.56920 | 38.67567 | 21960 ft | 411 kts | 216° |
| 2026-04-30 14:27 | -7.59165 | 38.65859 | 22405 ft | 413 kts | 216° |
| 2026-04-30 14:27 | -7.61457 | 38.64114 | 22846 ft | 415 kts | 216° |
| 2026-04-30 14:28 | -7.66088 | 38.60589 | 23695 ft | 419 kts | 216° |
| 2026-04-30 14:28 | -7.68433 | 38.58804 | 24099 ft | 422 kts | 217° |
| 2026-04-30 14:28 | -7.70747 | 38.57041 | 24485 ft | 424 kts | 217° |
| 2026-04-30 14:28 | -7.73130 | 38.55226 | 24874 ft | 426 kts | 217° |
| 2026-04-30 14:29 | -7.77853 | 38.51628 | 25587 ft | 430 kts | 217° |
| 2026-04-30 14:29 | -7.81842 | 38.48589 | 26164 ft | 433 kts | 217° |
| 2026-04-30 14:30 | -7.89853 | 38.42482 | 27362 ft | 435 kts | 217° |
| 2026-04-30 14:31 | -7.94668 | 38.38810 | 28217 ft | 431 kts | 217° |
| 2026-04-30 14:31 | -7.99432 | 38.35177 | 28986 ft | 429 kts | 217° |
| 2026-04-30 14:31 | -8.01817 | 38.33352 | 29349 ft | 428 kts | 218° |
| 2026-04-30 14:32 | -8.06447 | 38.29812 | 30043 ft | 426 kts | 218° |
| 2026-04-30 14:32 | -8.08814 | 38.28005 | 30380 ft | 424 kts | 218° |
| 2026-04-30 14:32 | -8.11157 | 38.26217 | 30713 ft | 423 kts | 218° |
| 2026-04-30 14:33 | -8.13513 | 38.24425 | 31012 ft | 423 kts | 218° |
| 2026-04-30 14:33 | -8.18204 | 38.20844 | 31631 ft | 421 kts | 218° |
| 2026-04-30 14:33 | -8.20548 | 38.19054 | 31905 ft | 420 kts | 218° |
| 2026-04-30 14:34 | -8.22876 | 38.17267 | 32180 ft | 419 kts | 218° |
| 2026-04-30 14:34 | -8.25203 | 38.15469 | 32455 ft | 418 kts | 219° |
| 2026-04-30 14:34 | -8.27509 | 38.13688 | 32695 ft | 417 kts | 219° |
| 2026-04-30 14:34 | -8.29812 | 38.11909 | 32925 ft | 417 kts | 219° |
| 2026-04-30 14:35 | -8.34408 | 38.08357 | 33382 ft | 416 kts | 219° |
| 2026-04-30 14:35 | -8.36718 | 38.06570 | 33600 ft | 415 kts | 219° |
| 2026-04-30 14:35 | -8.38992 | 38.04812 | 33805 ft | 414 kts | 219° |
| 2026-04-30 14:36 | -8.41282 | 38.03041 | 33999 ft | 414 kts | 219° |
| 2026-04-30 14:36 | -8.43574 | 38.01268 | 34181 ft | 413 kts | 219° |
| 2026-04-30 14:36 | -8.45840 | 37.99515 | 34360 ft | 413 kts | 219° |
| 2026-04-30 14:36 | -8.48150 | 37.97728 | 34543 ft | 412 kts | 219° |
| 2026-04-30 14:37 | -8.50409 | 37.95979 | 34694 ft | 412 kts | 219° |
| 2026-04-30 14:37 | -8.52706 | 37.94202 | 34845 ft | 412 kts | 219° |
| 2026-04-30 14:37 | -8.54986 | 37.92437 | 34999 ft | 411 kts | 219° |
| 2026-04-30 14:37 | -8.57242 | 37.90690 | 35148 ft | 411 kts | 219° |
| 2026-04-30 14:38 | -8.59522 | 37.88925 | 35292 ft | 410 kts | 219° |
| 2026-04-30 14:38 | -8.61777 | 37.87178 | 35416 ft | 410 kts | 219° |
| 2026-04-30 14:38 | -8.64032 | 37.85432 | 35548 ft | 410 kts | 219° |
| 2026-04-30 14:38 | -8.66301 | 37.83675 | 35664 ft | 410 kts | 219° |
| 2026-04-30 14:39 | -8.68568 | 37.81917 | 35782 ft | 409 kts | 219° |
| 2026-04-30 14:39 | -8.70819 | 37.80174 | 35892 ft | 409 kts | 219° |
| 2026-04-30 14:39 | -8.73033 | 37.78458 | 35969 ft | 398 kts | 219° |
| 2026-04-30 14:40 | -8.79682 | 37.73302 | 35996 ft | 403 kts | 219° |
| 2026-04-30 14:40 | -8.84150 | 37.69859 | 36001 ft | 408 kts | 219° |
| 2026-04-30 14:41 | -8.88697 | 37.66374 | 36016 ft | 409 kts | 219° |
| 2026-04-30 14:41 | -8.93235 | 37.62897 | 36047 ft | 407 kts | 219° |
| 2026-04-30 14:42 | -8.97750 | 37.59437 | 36098 ft | 408 kts | 219° |
| 2026-04-30 14:42 | -9.02288 | 37.55957 | 36163 ft | 411 kts | 218° |
| 2026-04-30 14:43 | -9.06868 | 37.52445 | 36208 ft | 415 kts | 218° |
| 2026-04-30 14:43 | -9.11478 | 37.48910 | 36237 ft | 419 kts | 218° |
| 2026-04-30 14:44 | -9.16131 | 37.45348 | 36236 ft | 420 kts | 218° |
| 2026-04-30 14:44 | -9.20781 | 37.41779 | 36237 ft | 418 kts | 218° |
| 2026-04-30 14:45 | -9.25425 | 37.38213 | 36237 ft | 419 kts | 218° |
| 2026-04-30 14:45 | -9.30071 | 37.34643 | 36238 ft | 419 kts | 218° |
| 2026-04-30 14:46 | -9.34699 | 37.31074 | 36238 ft | 419 kts | 218° |
| 2026-04-30 14:46 | -9.39344 | 37.27503 | 36237 ft | 419 kts | 218° |
| 2026-04-30 14:47 | -9.43979 | 37.23939 | 36238 ft | 419 kts | 218° |
| 2026-04-30 14:47 | -9.48649 | 37.20347 | 36237 ft | 419 kts | 218° |
| 2026-04-30 14:48 | -9.53268 | 37.16792 | 36237 ft | 419 kts | 218° |
| 2026-04-30 14:48 | -9.57919 | 37.13212 | 36238 ft | 419 kts | 218° |
| 2026-04-30 14:49 | -9.62565 | 37.09634 | 36238 ft | 419 kts | 218° |
| 2026-04-30 14:49 | -9.67192 | 37.06070 | 36237 ft | 418 kts | 218° |
| 2026-04-30 14:50 | -9.74138 | 37.00716 | 36237 ft | 418 kts | 218° |
| 2026-04-30 14:51 | -9.81016 | 36.95413 | 36237 ft | 418 kts | 218° |
| 2026-04-30 14:52 | -9.87958 | 36.90057 | 36237 ft | 418 kts | 218° |
| 2026-04-30 14:52 | -9.94889 | 36.84707 | 36237 ft | 418 kts | 218° |
| 2026-04-30 14:53 | -10.01866 | 36.79319 | 36237 ft | 418 kts | 218° |
| 2026-04-30 14:54 | -10.11124 | 36.72165 | 36238 ft | 418 kts | 218° |
| 2026-04-30 14:55 | -10.18081 | 36.66793 | 36173 ft | 418 kts | 218° |
| 2026-04-30 14:56 | -10.27327 | 36.59639 | 36178 ft | 419 kts | 218° |
| 2026-04-30 14:57 | -10.34273 | 36.54260 | 36181 ft | 419 kts | 218° |
| 2026-04-30 14:58 | -10.43556 | 36.47066 | 36181 ft | 419 kts | 218° |
| 2026-04-30 14:58 | -10.50496 | 36.41685 | 36183 ft | 419 kts | 218° |
| 2026-04-30 15:00 | -10.62084 | 36.32684 | 36183 ft | 419 kts | 218° |
| 2026-04-30 15:01 | -10.71322 | 36.25505 | 36183 ft | 418 kts | 218° |
| 2026-04-30 15:01 | -10.78277 | 36.20100 | 36183 ft | 419 kts | 218° |
| 2026-04-30 15:02 | -10.82885 | 36.16516 | 36184 ft | 418 kts | 218° |
| 2026-04-30 15:03 | -10.94464 | 36.07505 | 36184 ft | 418 kts | 218° |
| 2026-04-30 15:04 | -11.05997 | 35.98522 | 36182 ft | 418 kts | 217° |
| 2026-04-30 15:06 | -11.17555 | 35.89519 | 36184 ft | 418 kts | 217° |
| 2026-04-30 15:07 | -11.26790 | 35.82313 | 36184 ft | 418 kts | 217° |
| 2026-04-30 15:08 | -11.35986 | 35.75130 | 36183 ft | 418 kts | 217° |
| 2026-04-30 15:09 | -11.47472 | 35.66150 | 36184 ft | 418 kts | 217° |
| 2026-04-30 15:10 | -11.56695 | 35.58932 | 36184 ft | 418 kts | 217° |
| 2026-04-30 15:11 | -11.70457 | 35.47999 | 36182 ft | 418 kts | 218° |
| 2026-04-30 15:13 | -11.81885 | 35.38860 | 36183 ft | 418 kts | 218° |
| 2026-04-30 15:14 | -11.97921 | 35.26007 | 36184 ft | 418 kts | 218° |
| 2026-04-30 15:17 | -12.18491 | 35.09515 | 36184 ft | 418 kts | 218° |
| 2026-04-30 15:19 | -12.36815 | 34.94788 | 36183 ft | 421 kts | 218° |
| 2026-04-30 17:39 | -26.25184 | 28.22107 | 7325 ft | 190 kts | 15° |
| 2026-04-30 17:41 | -26.16887 | 28.24703 | 5653 ft | 139 kts | 13° |
| 2026-04-30 17:42 | -26.15270 | 28.25188 | 5547 ft | 74 kts | 18° |
| 2026-04-30 17:42 | -26.14582 | 28.25325 | 5538 ft | 15 kts | 322° |
| 2026-04-30 17:43 | -26.14412 | 28.25144 | 5533 ft | 20 kts | 316° |
| 2026-04-30 17:44 | -26.14070 | 28.24772 | 5522 ft | 24 kts | 317° |
| 2026-04-30 17:44 | -26.13770 | 28.24449 | 5520 ft | 17 kts | 316° |
| 2026-04-30 17:46 | -26.13349 | 28.23991 | 5534 ft | 16 kts | 316° |
| 2026-04-30 17:47 | -26.12943 | 28.23756 | 5539 ft | 16 kts | 16° |
| 2026-04-30 17:48 | -26.12812 | 28.23516 | 5548 ft | 9 kts | 276° |
| 2026-04-30 17:48 | -26.12824 | 28.23347 | 5552 ft | 7 kts | 200° |
| 2026-04-30 17:49 | -26.12882 | 28.23337 | 5555 ft | 0 kts | 187° |